sensor_id;sensor_type;location;lat;lon;timestamp;P1;durP1;ratioP1;P2;durP2;ratioP2
38911;SDS011;28444;48.056;14.408;2023-06-22T00:00:45;17.00;;;5.57;;
38911;SDS011;28444;48.056;14.408;2023-06-22T00:03:33;16.30;;;5.43;;
38911;SDS011;28444;48.056;14.408;2023-06-22T00:06:20;11.60;;;5.65;;
38911;SDS011;28444;48.056;14.408;2023-06-22T00:09:07;10.70;;;4.95;;
38911;SDS011;28444;48.056;14.408;2023-06-22T00:11:54;14.27;;;6.03;;
38911;SDS011;28444;48.056;14.408;2023-06-22T00:14:41;15.43;;;5.55;;
38911;SDS011;28444;48.056;14.408;2023-06-22T00:17:28;12.68;;;6.25;;
38911;SDS011;28444;48.056;14.408;2023-06-22T00:20:15;14.45;;;5.65;;
38911;SDS011;28444;48.056;14.408;2023-06-22T00:23:03;17.67;;;5.30;;
38911;SDS011;28444;48.056;14.408;2023-06-22T00:25:54;13.00;;;5.25;;
38911;SDS011;28444;48.056;14.408;2023-06-22T00:28:41;13.05;;;5.22;;
38911;SDS011;28444;48.056;14.408;2023-06-22T00:31:28;15.93;;;5.68;;
38911;SDS011;28444;48.056;14.408;2023-06-22T00:34:15;10.68;;;5.20;;
38911;SDS011;28444;48.056;14.408;2023-06-22T00:37:02;18.10;;;5.45;;
38911;SDS011;28444;48.056;14.408;2023-06-22T00:39:49;12.93;;;5.30;;
38911;SDS011;28444;48.056;14.408;2023-06-22T00:42:37;15.95;;;5.43;;
38911;SDS011;28444;48.056;14.408;2023-06-22T00:45:25;20.95;;;5.68;;
38911;SDS011;28444;48.056;14.408;2023-06-22T00:48:13;12.07;;;5.18;;
38911;SDS011;28444;48.056;14.408;2023-06-22T00:51:01;10.20;;;5.53;;
38911;SDS011;28444;48.056;14.408;2023-06-22T00:53:48;16.40;;;5.35;;
38911;SDS011;28444;48.056;14.408;2023-06-22T00:56:36;8.57;;;4.72;;
38911;SDS011;28444;48.056;14.408;2023-06-22T00:59:24;15.00;;;5.50;;
38911;SDS011;28444;48.056;14.408;2023-06-22T01:02:13;14.05;;;5.65;;
38911;SDS011;28444;48.056;14.408;2023-06-22T01:05:09;16.10;;;5.28;;
38911;SDS011;28444;48.056;14.408;2023-06-22T01:14:10;15.57;;;5.50;;
38911;SDS011;28444;48.056;14.408;2023-06-22T01:17:02;20.15;;;7.25;;
38911;SDS011;28444;48.056;14.408;2023-06-22T01:19:49;13.35;;;4.32;;
38911;SDS011;28444;48.056;14.408;2023-06-22T01:23:07;10.32;;;4.38;;
38911;SDS011;28444;48.056;14.408;2023-06-22T01:29:40;10.55;;;5.15;;
38911;SDS011;28444;48.056;14.408;2023-06-22T01:32:30;13.27;;;5.82;;
38911;SDS011;28444;48.056;14.408;2023-06-22T01:35:21;19.35;;;4.63;;
38911;SDS011;28444;48.056;14.408;2023-06-22T01:38:10;16.25;;;5.30;;
38911;SDS011;28444;48.056;14.408;2023-06-22T01:40:58;11.77;;;5.38;;
38911;SDS011;28444;48.056;14.408;2023-06-22T01:43:46;10.07;;;5.28;;
38911;SDS011;28444;48.056;14.408;2023-06-22T01:46:34;18.58;;;4.80;;
38911;SDS011;28444;48.056;14.408;2023-06-22T01:49:22;18.25;;;5.78;;
38911;SDS011;28444;48.056;14.408;2023-06-22T01:52:09;15.63;;;5.47;;
38911;SDS011;28444;48.056;14.408;2023-06-22T01:54:56;13.13;;;5.63;;
38911;SDS011;28444;48.056;14.408;2023-06-22T01:57:44;8.60;;;5.25;;
38911;SDS011;28444;48.056;14.408;2023-06-22T02:00:31;12.35;;;5.30;;
38911;SDS011;28444;48.056;14.408;2023-06-22T02:03:22;18.15;;;5.85;;
38911;SDS011;28444;48.056;14.408;2023-06-22T02:06:17;11.70;;;5.63;;
38911;SDS011;28444;48.056;14.408;2023-06-22T02:09:11;18.67;;;6.30;;
38911;SDS011;28444;48.056;14.408;2023-06-22T02:12:01;15.57;;;6.35;;
38911;SDS011;28444;48.056;14.408;2023-06-22T02:14:50;12.80;;;6.43;;
38911;SDS011;28444;48.056;14.408;2023-06-22T02:17:38;18.85;;;6.65;;
38911;SDS011;28444;48.056;14.408;2023-06-22T02:20:25;13.18;;;5.70;;
38911;SDS011;28444;48.056;14.408;2023-06-22T02:23:13;16.73;;;6.22;;
38911;SDS011;28444;48.056;14.408;2023-06-22T02:26:00;18.60;;;6.90;;
38911;SDS011;28444;48.056;14.408;2023-06-22T02:28:48;18.65;;;5.72;;
38911;SDS011;28444;48.056;14.408;2023-06-22T02:31:35;14.30;;;5.82;;
38911;SDS011;28444;48.056;14.408;2023-06-22T02:34:22;16.95;;;5.63;;
38911;SDS011;28444;48.056;14.408;2023-06-22T02:37:09;14.20;;;6.63;;
38911;SDS011;28444;48.056;14.408;2023-06-22T02:39:57;20.13;;;7.72;;
38911;SDS011;28444;48.056;14.408;2023-06-22T02:42:44;15.45;;;6.68;;
38911;SDS011;28444;48.056;14.408;2023-06-22T02:45:31;14.68;;;6.50;;
38911;SDS011;28444;48.056;14.408;2023-06-22T02:48:18;18.90;;;5.47;;
38911;SDS011;28444;48.056;14.408;2023-06-22T02:51:05;13.82;;;5.70;;
38911;SDS011;28444;48.056;14.408;2023-06-22T02:53:52;16.23;;;5.63;;
38911;SDS011;28444;48.056;14.408;2023-06-22T02:56:44;19.08;;;7.15;;
38911;SDS011;28444;48.056;14.408;2023-06-22T02:59:31;11.25;;;5.20;;
38911;SDS011;28444;48.056;14.408;2023-06-22T03:02:20;21.52;;;7.15;;
38911;SDS011;28444;48.056;14.408;2023-06-22T03:05:08;13.18;;;6.22;;
38911;SDS011;28444;48.056;14.408;2023-06-22T03:08:00;15.73;;;6.40;;
38911;SDS011;28444;48.056;14.408;2023-06-22T03:10:47;11.98;;;6.07;;
38911;SDS011;28444;48.056;14.408;2023-06-22T03:13:34;16.15;;;6.22;;
38911;SDS011;28444;48.056;14.408;2023-06-22T03:16:21;16.95;;;6.93;;
38911;SDS011;28444;48.056;14.408;2023-06-22T03:19:08;14.90;;;7.18;;
38911;SDS011;28444;48.056;14.408;2023-06-22T03:21:55;14.88;;;6.75;;
38911;SDS011;28444;48.056;14.408;2023-06-22T03:24:41;15.40;;;6.00;;
38911;SDS011;28444;48.056;14.408;2023-06-22T03:27:28;24.33;;;7.50;;
38911;SDS011;28444;48.056;14.408;2023-06-22T03:30:15;12.60;;;5.90;;
38911;SDS011;28444;48.056;14.408;2023-06-22T03:33:02;20.75;;;6.45;;
38911;SDS011;28444;48.056;14.408;2023-06-22T03:35:49;13.82;;;6.03;;
38911;SDS011;28444;48.056;14.408;2023-06-22T03:38:36;18.75;;;7.28;;
38911;SDS011;28444;48.056;14.408;2023-06-22T03:41:23;14.93;;;7.88;;
38911;SDS011;28444;48.056;14.408;2023-06-22T03:44:10;13.73;;;6.28;;
38911;SDS011;28444;48.056;14.408;2023-06-22T03:46:59;17.80;;;5.65;;
38911;SDS011;28444;48.056;14.408;2023-06-22T03:49:45;16.63;;;5.95;;
38911;SDS011;28444;48.056;14.408;2023-06-22T03:52:32;14.02;;;6.40;;
38911;SDS011;28444;48.056;14.408;2023-06-22T03:55:19;15.20;;;6.25;;
38911;SDS011;28444;48.056;14.408;2023-06-22T03:58:06;17.15;;;6.03;;
38911;SDS011;28444;48.056;14.408;2023-06-22T04:00:53;12.85;;;6.78;;
38911;SDS011;28444;48.056;14.408;2023-06-22T04:03:40;20.80;;;6.57;;
38911;SDS011;28444;48.056;14.408;2023-06-22T04:06:27;19.65;;;5.28;;
38911;SDS011;28444;48.056;14.408;2023-06-22T04:09:14;19.77;;;5.93;;
38911;SDS011;28444;48.056;14.408;2023-06-22T04:12:01;17.25;;;6.65;;
38911;SDS011;28444;48.056;14.408;2023-06-22T04:14:49;18.58;;;6.60;;
38911;SDS011;28444;48.056;14.408;2023-06-22T04:17:36;18.98;;;6.50;;
38911;SDS011;28444;48.056;14.408;2023-06-22T04:20:23;11.55;;;5.30;;
38911;SDS011;28444;48.056;14.408;2023-06-22T04:26:02;12.20;;;5.97;;
38911;SDS011;28444;48.056;14.408;2023-06-22T04:28:49;11.43;;;6.47;;
38911;SDS011;28444;48.056;14.408;2023-06-22T04:31:45;19.20;;;6.60;;
38911;SDS011;28444;48.056;14.408;2023-06-22T04:34:37;18.70;;;6.57;;
38911;SDS011;28444;48.056;14.408;2023-06-22T04:37:24;16.00;;;7.00;;
38911;SDS011;28444;48.056;14.408;2023-06-22T04:40:11;20.95;;;6.32;;
38911;SDS011;28444;48.056;14.408;2023-06-22T04:43:01;23.20;;;6.55;;
38911;SDS011;28444;48.056;14.408;2023-06-22T04:45:49;18.08;;;7.28;;
38911;SDS011;28444;48.056;14.408;2023-06-22T04:48:39;20.75;;;6.75;;
38911;SDS011;28444;48.056;14.408;2023-06-22T04:51:26;15.82;;;6.60;;
38911;SDS011;28444;48.056;14.408;2023-06-22T04:54:17;13.98;;;6.38;;
38911;SDS011;28444;48.056;14.408;2023-06-22T04:57:05;16.88;;;6.70;;
38911;SDS011;28444;48.056;14.408;2023-06-22T04:59:56;18.85;;;7.18;;
38911;SDS011;28444;48.056;14.408;2023-06-22T05:02:43;19.08;;;6.55;;
38911;SDS011;28444;48.056;14.408;2023-06-22T05:05:34;25.08;;;7.38;;
38911;SDS011;28444;48.056;14.408;2023-06-22T05:08:21;20.75;;;7.40;;
38911;SDS011;28444;48.056;14.408;2023-06-22T05:11:12;14.95;;;6.97;;
38911;SDS011;28444;48.056;14.408;2023-06-22T05:13:59;23.52;;;7.18;;
38911;SDS011;28444;48.056;14.408;2023-06-22T05:16:46;20.08;;;8.30;;
38911;SDS011;28444;48.056;14.408;2023-06-22T05:19:33;17.83;;;7.88;;
38911;SDS011;28444;48.056;14.408;2023-06-22T05:22:21;21.65;;;7.63;;
38911;SDS011;28444;48.056;14.408;2023-06-22T05:25:09;14.55;;;7.60;;
38911;SDS011;28444;48.056;14.408;2023-06-22T05:27:57;17.70;;;6.80;;
38911;SDS011;28444;48.056;14.408;2023-06-22T05:30:44;16.77;;;6.95;;
38911;SDS011;28444;48.056;14.408;2023-06-22T05:33:30;14.30;;;6.97;;
38911;SDS011;28444;48.056;14.408;2023-06-22T05:36:21;17.27;;;7.28;;
38911;SDS011;28444;48.056;14.408;2023-06-22T05:39:12;20.25;;;6.95;;
38911;SDS011;28444;48.056;14.408;2023-06-22T05:42:00;18.77;;;6.75;;
38911;SDS011;28444;48.056;14.408;2023-06-22T05:44:47;16.77;;;7.15;;
38911;SDS011;28444;48.056;14.408;2023-06-22T05:47:34;31.15;;;7.20;;
38911;SDS011;28444;48.056;14.408;2023-06-22T05:50:21;18.98;;;7.15;;
38911;SDS011;28444;48.056;14.408;2023-06-22T05:53:08;21.20;;;7.35;;
38911;SDS011;28444;48.056;14.408;2023-06-22T05:55:55;17.58;;;7.38;;
38911;SDS011;28444;48.056;14.408;2023-06-22T05:58:42;19.42;;;7.05;;
38911;SDS011;28444;48.056;14.408;2023-06-22T06:01:29;20.52;;;6.93;;
38911;SDS011;28444;48.056;14.408;2023-06-22T06:04:18;16.40;;;7.55;;
38911;SDS011;28444;48.056;14.408;2023-06-22T06:07:05;24.90;;;7.60;;
38911;SDS011;28444;48.056;14.408;2023-06-22T06:09:52;15.32;;;6.55;;
38911;SDS011;28444;48.056;14.408;2023-06-22T06:12:39;17.58;;;6.53;;
38911;SDS011;28444;48.056;14.408;2023-06-22T06:15:26;20.13;;;6.85;;
38911;SDS011;28444;48.056;14.408;2023-06-22T06:18:13;17.92;;;7.30;;
38911;SDS011;28444;48.056;14.408;2023-06-22T06:21:00;22.50;;;8.10;;
38911;SDS011;28444;48.056;14.408;2023-06-22T06:23:47;19.75;;;8.20;;
38911;SDS011;28444;48.056;14.408;2023-06-22T06:26:34;20.67;;;6.65;;
38911;SDS011;28444;48.056;14.408;2023-06-22T06:29:22;22.58;;;6.97;;
38911;SDS011;28444;48.056;14.408;2023-06-22T06:32:10;29.65;;;8.77;;
38911;SDS011;28444;48.056;14.408;2023-06-22T06:34:57;22.00;;;7.60;;
38911;SDS011;28444;48.056;14.408;2023-06-22T06:37:46;21.45;;;7.72;;
38911;SDS011;28444;48.056;14.408;2023-06-22T06:40:34;16.33;;;7.05;;
38911;SDS011;28444;48.056;14.408;2023-06-22T06:43:22;17.48;;;7.03;;
38911;SDS011;28444;48.056;14.408;2023-06-22T06:46:10;13.30;;;7.72;;
38911;SDS011;28444;48.056;14.408;2023-06-22T06:48:57;16.27;;;7.90;;
38911;SDS011;28444;48.056;14.408;2023-06-22T06:51:44;22.90;;;7.82;;
38911;SDS011;28444;48.056;14.408;2023-06-22T06:54:31;17.15;;;7.85;;
38911;SDS011;28444;48.056;14.408;2023-06-22T06:57:18;13.82;;;6.63;;
38911;SDS011;28444;48.056;14.408;2023-06-22T07:00:09;18.67;;;7.70;;
38911;SDS011;28444;48.056;14.408;2023-06-22T07:02:59;18.50;;;6.82;;
38911;SDS011;28444;48.056;14.408;2023-06-22T07:05:46;20.90;;;6.80;;
38911;SDS011;28444;48.056;14.408;2023-06-22T07:08:33;20.88;;;6.60;;
38911;SDS011;28444;48.056;14.408;2023-06-22T07:11:21;19.27;;;8.20;;
38911;SDS011;28444;48.056;14.408;2023-06-22T07:14:08;15.20;;;7.95;;
38911;SDS011;28444;48.056;14.408;2023-06-22T07:16:55;16.38;;;7.25;;
38911;SDS011;28444;48.056;14.408;2023-06-22T07:19:42;18.58;;;7.65;;
38911;SDS011;28444;48.056;14.408;2023-06-22T07:22:29;19.45;;;7.65;;
38911;SDS011;28444;48.056;14.408;2023-06-22T07:25:16;25.88;;;7.15;;
38911;SDS011;28444;48.056;14.408;2023-06-22T07:28:05;18.17;;;7.55;;
38911;SDS011;28444;48.056;14.408;2023-06-22T07:30:52;18.42;;;6.75;;
38911;SDS011;28444;48.056;14.408;2023-06-22T07:33:39;18.25;;;6.75;;
38911;SDS011;28444;48.056;14.408;2023-06-22T07:36:26;14.15;;;7.00;;
38911;SDS011;28444;48.056;14.408;2023-06-22T07:39:13;14.00;;;7.05;;
38911;SDS011;28444;48.056;14.408;2023-06-22T07:42:01;13.82;;;6.95;;
38911;SDS011;28444;48.056;14.408;2023-06-22T07:44:48;16.42;;;7.32;;
38911;SDS011;28444;48.056;14.408;2023-06-22T07:47:36;17.40;;;6.65;;
38911;SDS011;28444;48.056;14.408;2023-06-22T07:50:23;17.15;;;7.20;;
38911;SDS011;28444;48.056;14.408;2023-06-22T07:53:10;10.40;;;6.10;;
38911;SDS011;28444;48.056;14.408;2023-06-22T07:55:57;12.35;;;6.65;;
38911;SDS011;28444;48.056;14.408;2023-06-22T07:58:45;17.17;;;6.50;;
38911;SDS011;28444;48.056;14.408;2023-06-22T08:01:32;12.10;;;6.70;;
38911;SDS011;28444;48.056;14.408;2023-06-22T08:04:19;19.20;;;7.80;;
38911;SDS011;28444;48.056;14.408;2023-06-22T08:07:06;12.45;;;7.05;;
38911;SDS011;28444;48.056;14.408;2023-06-22T08:09:54;16.45;;;6.65;;
38911;SDS011;28444;48.056;14.408;2023-06-22T08:12:40;19.00;;;8.80;;
38911;SDS011;28444;48.056;14.408;2023-06-22T08:15:28;13.10;;;6.82;;
38911;SDS011;28444;48.056;14.408;2023-06-22T08:18:15;13.68;;;7.32;;
38911;SDS011;28444;48.056;14.408;2023-06-22T08:21:03;13.70;;;8.23;;
38911;SDS011;28444;48.056;14.408;2023-06-22T08:23:51;22.00;;;8.13;;
38911;SDS011;28444;48.056;14.408;2023-06-22T08:26:38;19.63;;;7.63;;
38911;SDS011;28444;48.056;14.408;2023-06-22T08:29:25;9.02;;;6.63;;
38911;SDS011;28444;48.056;14.408;2023-06-22T08:32:12;13.45;;;7.13;;
38911;SDS011;28444;48.056;14.408;2023-06-22T08:34:59;31.50;;;7.65;;
38911;SDS011;28444;48.056;14.408;2023-06-22T08:37:46;16.27;;;7.25;;
38911;SDS011;28444;48.056;14.408;2023-06-22T08:40:38;27.05;;;6.82;;
38911;SDS011;28444;48.056;14.408;2023-06-22T08:43:25;12.15;;;6.85;;
38911;SDS011;28444;48.056;14.408;2023-06-22T08:46:12;12.57;;;6.28;;
38911;SDS011;28444;48.056;14.408;2023-06-22T08:48:59;13.70;;;7.32;;
38911;SDS011;28444;48.056;14.408;2023-06-22T08:51:46;13.82;;;7.72;;
38911;SDS011;28444;48.056;14.408;2023-06-22T08:54:35;25.27;;;7.82;;
38911;SDS011;28444;48.056;14.408;2023-06-22T08:57:22;11.73;;;7.20;;
38911;SDS011;28444;48.056;14.408;2023-06-22T09:00:09;18.85;;;7.03;;
38911;SDS011;28444;48.056;14.408;2023-06-22T09:03:06;16.05;;;6.45;;
38911;SDS011;28444;48.056;14.408;2023-06-22T09:05:54;12.63;;;5.78;;
38911;SDS011;28444;48.056;14.408;2023-06-22T09:08:42;25.88;;;6.97;;
38911;SDS011;28444;48.056;14.408;2023-06-22T09:11:29;22.75;;;6.90;;
38911;SDS011;28444;48.056;14.408;2023-06-22T09:14:16;17.90;;;7.22;;
38911;SDS011;28444;48.056;14.408;2023-06-22T09:17:03;19.63;;;7.20;;
38911;SDS011;28444;48.056;14.408;2023-06-22T09:19:50;19.33;;;7.72;;
38911;SDS011;28444;48.056;14.408;2023-06-22T09:22:37;18.15;;;7.32;;
38911;SDS011;28444;48.056;14.408;2023-06-22T09:25:24;20.13;;;6.95;;
38911;SDS011;28444;48.056;14.408;2023-06-22T09:28:11;26.38;;;7.28;;
38911;SDS011;28444;48.056;14.408;2023-06-22T09:30:58;22.55;;;8.30;;
38911;SDS011;28444;48.056;14.408;2023-06-22T09:33:45;22.88;;;7.20;;
38911;SDS011;28444;48.056;14.408;2023-06-22T09:36:33;17.08;;;7.22;;
38911;SDS011;28444;48.056;14.408;2023-06-22T09:39:20;18.48;;;7.20;;
38911;SDS011;28444;48.056;14.408;2023-06-22T09:42:07;16.40;;;7.32;;
38911;SDS011;28444;48.056;14.408;2023-06-22T09:44:54;22.50;;;7.35;;
38911;SDS011;28444;48.056;14.408;2023-06-22T09:47:41;15.50;;;6.90;;
38911;SDS011;28444;48.056;14.408;2023-06-22T09:50:29;23.25;;;7.20;;
38911;SDS011;28444;48.056;14.408;2023-06-22T09:53:17;18.73;;;6.80;;
38911;SDS011;28444;48.056;14.408;2023-06-22T09:56:04;14.77;;;5.93;;
38911;SDS011;28444;48.056;14.408;2023-06-22T09:58:52;21.60;;;7.35;;
38911;SDS011;28444;48.056;14.408;2023-06-22T10:01:41;19.10;;;7.60;;
38911;SDS011;28444;48.056;14.408;2023-06-22T10:04:28;14.90;;;6.68;;
38911;SDS011;28444;48.056;14.408;2023-06-22T10:07:16;17.30;;;5.95;;
38911;SDS011;28444;48.056;14.408;2023-06-22T10:10:02;21.27;;;6.93;;
38911;SDS011;28444;48.056;14.408;2023-06-22T10:12:56;17.05;;;7.50;;
38911;SDS011;28444;48.056;14.408;2023-06-22T10:15:44;12.73;;;6.18;;
38911;SDS011;28444;48.056;14.408;2023-06-22T10:18:36;14.48;;;7.15;;
38911;SDS011;28444;48.056;14.408;2023-06-22T10:21:23;17.42;;;6.82;;
38911;SDS011;28444;48.056;14.408;2023-06-22T10:24:10;19.50;;;6.80;;
38911;SDS011;28444;48.056;14.408;2023-06-22T10:26:57;19.65;;;7.45;;
38911;SDS011;28444;48.056;14.408;2023-06-22T10:29:44;16.67;;;6.68;;
38911;SDS011;28444;48.056;14.408;2023-06-22T10:32:30;12.88;;;5.90;;
38911;SDS011;28444;48.056;14.408;2023-06-22T10:35:17;15.68;;;6.93;;
38911;SDS011;28444;48.056;14.408;2023-06-22T10:38:05;19.00;;;6.53;;
38911;SDS011;28444;48.056;14.408;2023-06-22T10:40:52;18.88;;;5.85;;
38911;SDS011;28444;48.056;14.408;2023-06-22T10:43:39;19.13;;;6.20;;
38911;SDS011;28444;48.056;14.408;2023-06-22T10:46:26;14.70;;;6.88;;
38911;SDS011;28444;48.056;14.408;2023-06-22T10:49:14;16.23;;;6.65;;
38911;SDS011;28444;48.056;14.408;2023-06-22T10:52:01;18.63;;;6.80;;
38911;SDS011;28444;48.056;14.408;2023-06-22T10:54:48;22.63;;;7.82;;
38911;SDS011;28444;48.056;14.408;2023-06-22T10:57:35;17.58;;;5.95;;
38911;SDS011;28444;48.056;14.408;2023-06-22T11:00:23;18.27;;;7.00;;
38911;SDS011;28444;48.056;14.408;2023-06-22T11:03:10;17.00;;;8.23;;
38911;SDS011;28444;48.056;14.408;2023-06-22T11:06:00;28.45;;;7.20;;
38911;SDS011;28444;48.056;14.408;2023-06-22T11:08:47;15.85;;;6.75;;
38911;SDS011;28444;48.056;14.408;2023-06-22T11:11:50;17.67;;;7.72;;
38911;SDS011;28444;48.056;14.408;2023-06-22T11:14:40;22.38;;;7.70;;
38911;SDS011;28444;48.056;14.408;2023-06-22T11:17:27;13.95;;;6.50;;
38911;SDS011;28444;48.056;14.408;2023-06-22T11:20:14;15.95;;;7.05;;
38911;SDS011;28444;48.056;14.408;2023-06-22T11:23:01;15.38;;;7.38;;
38911;SDS011;28444;48.056;14.408;2023-06-22T11:25:48;15.48;;;7.22;;
38911;SDS011;28444;48.056;14.408;2023-06-22T11:28:34;20.20;;;7.70;;
38911;SDS011;28444;48.056;14.408;2023-06-22T11:31:21;10.93;;;7.30;;
38911;SDS011;28444;48.056;14.408;2023-06-22T11:34:12;20.52;;;7.00;;
38911;SDS011;28444;48.056;14.408;2023-06-22T11:36:59;16.27;;;6.43;;
38911;SDS011;28444;48.056;14.408;2023-06-22T11:39:46;17.00;;;8.25;;
38911;SDS011;28444;48.056;14.408;2023-06-22T11:42:39;17.33;;;7.65;;
38911;SDS011;28444;48.056;14.408;2023-06-22T11:45:26;17.40;;;7.50;;
38911;SDS011;28444;48.056;14.408;2023-06-22T11:48:13;21.75;;;7.95;;
38911;SDS011;28444;48.056;14.408;2023-06-22T11:51:00;26.67;;;7.65;;
38911;SDS011;28444;48.056;14.408;2023-06-22T11:53:49;21.23;;;7.28;;
38911;SDS011;28444;48.056;14.408;2023-06-22T11:56:36;15.63;;;7.70;;
38911;SDS011;28444;48.056;14.408;2023-06-22T11:59:23;16.10;;;7.75;;
38911;SDS011;28444;48.056;14.408;2023-06-22T12:02:10;24.60;;;6.88;;
38911;SDS011;28444;48.056;14.408;2023-06-22T12:04:57;24.65;;;6.95;;
38911;SDS011;28444;48.056;14.408;2023-06-22T12:07:44;21.15;;;7.97;;
38911;SDS011;28444;48.056;14.408;2023-06-22T12:10:31;13.50;;;7.18;;
38911;SDS011;28444;48.056;14.408;2023-06-22T12:13:19;18.27;;;6.65;;
38911;SDS011;28444;48.056;14.408;2023-06-22T12:16:06;21.30;;;8.38;;
38911;SDS011;28444;48.056;14.408;2023-06-22T12:18:53;25.40;;;8.20;;
38911;SDS011;28444;48.056;14.408;2023-06-22T12:21:40;22.52;;;7.28;;
38911;SDS011;28444;48.056;14.408;2023-06-22T12:24:27;21.65;;;7.70;;
38911;SDS011;28444;48.056;14.408;2023-06-22T12:27:14;24.42;;;8.35;;
38911;SDS011;28444;48.056;14.408;2023-06-22T12:30:03;22.33;;;7.50;;
38911;SDS011;28444;48.056;14.408;2023-06-22T12:32:50;16.50;;;7.07;;
38911;SDS011;28444;48.056;14.408;2023-06-22T12:35:40;17.55;;;6.60;;
38911;SDS011;28444;48.056;14.408;2023-06-22T12:38:26;23.45;;;7.28;;
38911;SDS011;28444;48.056;14.408;2023-06-22T12:41:13;17.17;;;6.78;;
38911;SDS011;28444;48.056;14.408;2023-06-22T12:44:00;14.30;;;6.97;;
38911;SDS011;28444;48.056;14.408;2023-06-22T12:46:48;18.13;;;8.05;;
38911;SDS011;28444;48.056;14.408;2023-06-22T12:49:36;20.60;;;7.25;;
38911;SDS011;28444;48.056;14.408;2023-06-22T12:52:23;18.33;;;8.57;;
38911;SDS011;28444;48.056;14.408;2023-06-22T12:55:09;21.00;;;9.10;;
38911;SDS011;28444;48.056;14.408;2023-06-22T12:57:56;15.63;;;7.85;;
38911;SDS011;28444;48.056;14.408;2023-06-22T13:00:43;18.52;;;7.93;;
38911;SDS011;28444;48.056;14.408;2023-06-22T13:03:30;16.90;;;7.90;;
38911;SDS011;28444;48.056;14.408;2023-06-22T13:06:17;13.05;;;6.97;;
38911;SDS011;28444;48.056;14.408;2023-06-22T13:09:04;32.10;;;8.63;;
38911;SDS011;28444;48.056;14.408;2023-06-22T13:11:54;20.58;;;7.43;;
38911;SDS011;28444;48.056;14.408;2023-06-22T13:14:41;16.95;;;8.38;;
38911;SDS011;28444;48.056;14.408;2023-06-22T13:17:29;16.50;;;7.38;;
38911;SDS011;28444;48.056;14.408;2023-06-22T13:20:16;18.08;;;7.35;;
38911;SDS011;28444;48.056;14.408;2023-06-22T13:23:03;24.67;;;9.10;;
38911;SDS011;28444;48.056;14.408;2023-06-22T13:25:50;27.08;;;8.25;;
38911;SDS011;28444;48.056;14.408;2023-06-22T13:28:37;22.08;;;9.32;;
38911;SDS011;28444;48.056;14.408;2023-06-22T13:31:24;26.15;;;8.65;;
38911;SDS011;28444;48.056;14.408;2023-06-22T13:34:11;22.10;;;8.85;;
38911;SDS011;28444;48.056;14.408;2023-06-22T13:36:58;22.33;;;9.68;;
38911;SDS011;28444;48.056;14.408;2023-06-22T13:39:45;16.40;;;8.38;;
38911;SDS011;28444;48.056;14.408;2023-06-22T13:42:33;22.60;;;9.38;;
38911;SDS011;28444;48.056;14.408;2023-06-22T13:45:20;24.00;;;8.65;;
38911;SDS011;28444;48.056;14.408;2023-06-22T13:48:07;20.88;;;9.43;;
38911;SDS011;28444;48.056;14.408;2023-06-22T13:50:54;33.55;;;11.85;;
38911;SDS011;28444;48.056;14.408;2023-06-22T13:53:41;22.35;;;10.55;;
38911;SDS011;28444;48.056;14.408;2023-06-22T13:56:28;17.95;;;10.18;;
38911;SDS011;28444;48.056;14.408;2023-06-22T13:59:17;21.30;;;9.05;;
38911;SDS011;28444;48.056;14.408;2023-06-22T14:02:04;24.13;;;10.35;;
38911;SDS011;28444;48.056;14.408;2023-06-22T14:04:51;19.02;;;9.70;;
38911;SDS011;28444;48.056;14.408;2023-06-22T14:07:38;27.35;;;10.50;;
38911;SDS011;28444;48.056;14.408;2023-06-22T14:10:27;21.48;;;9.85;;
38911;SDS011;28444;48.056;14.408;2023-06-22T14:13:14;24.10;;;8.73;;
38911;SDS011;28444;48.056;14.408;2023-06-22T14:16:01;17.67;;;10.43;;
38911;SDS011;28444;48.056;14.408;2023-06-22T14:18:49;20.67;;;10.43;;
38911;SDS011;28444;48.056;14.408;2023-06-22T14:21:35;24.58;;;10.45;;
38911;SDS011;28444;48.056;14.408;2023-06-22T14:24:23;19.00;;;10.43;;
38911;SDS011;28444;48.056;14.408;2023-06-22T14:27:12;22.52;;;9.90;;
38911;SDS011;28444;48.056;14.408;2023-06-22T14:29:59;26.95;;;10.80;;
38911;SDS011;28444;48.056;14.408;2023-06-22T14:32:50;20.90;;;10.23;;
38911;SDS011;28444;48.056;14.408;2023-06-22T14:35:37;18.92;;;9.75;;
38911;SDS011;28444;48.056;14.408;2023-06-22T14:38:24;25.98;;;10.07;;
38911;SDS011;28444;48.056;14.408;2023-06-22T14:41:11;30.00;;;9.95;;
38911;SDS011;28444;48.056;14.408;2023-06-22T14:44:01;21.08;;;10.30;;
38911;SDS011;28444;48.056;14.408;2023-06-22T14:46:47;25.20;;;9.48;;
38911;SDS011;28444;48.056;14.408;2023-06-22T14:49:34;27.55;;;10.77;;
38911;SDS011;28444;48.056;14.408;2023-06-22T14:52:22;22.92;;;9.90;;
38911;SDS011;28444;48.056;14.408;2023-06-22T14:55:09;20.50;;;10.05;;
38911;SDS011;28444;48.056;14.408;2023-06-22T14:57:56;19.30;;;9.68;;
38911;SDS011;28444;48.056;14.408;2023-06-22T15:00:43;19.00;;;9.35;;
38911;SDS011;28444;48.056;14.408;2023-06-22T15:03:30;23.05;;;9.52;;
38911;SDS011;28444;48.056;14.408;2023-06-22T15:06:19;14.75;;;9.27;;
38911;SDS011;28444;48.056;14.408;2023-06-22T15:09:06;19.30;;;8.32;;
38911;SDS011;28444;48.056;14.408;2023-06-22T15:11:53;18.65;;;9.43;;
38911;SDS011;28444;48.056;14.408;2023-06-22T15:14:41;17.88;;;8.57;;
38911;SDS011;28444;48.056;14.408;2023-06-22T15:17:28;20.38;;;9.77;;
38911;SDS011;28444;48.056;14.408;2023-06-22T15:20:17;22.42;;;8.23;;
38911;SDS011;28444;48.056;14.408;2023-06-22T15:23:05;19.25;;;8.35;;
38911;SDS011;28444;48.056;14.408;2023-06-22T15:25:52;20.92;;;8.82;;
38911;SDS011;28444;48.056;14.408;2023-06-22T15:28:39;24.27;;;8.65;;
38911;SDS011;28444;48.056;14.408;2023-06-22T15:31:26;19.80;;;8.98;;
38911;SDS011;28444;48.056;14.408;2023-06-22T15:34:14;19.77;;;8.73;;
38911;SDS011;28444;48.056;14.408;2023-06-22T15:37:01;22.58;;;8.55;;
38911;SDS011;28444;48.056;14.408;2023-06-22T15:39:48;22.55;;;8.23;;
38911;SDS011;28444;48.056;14.408;2023-06-22T15:42:35;18.17;;;7.88;;
38911;SDS011;28444;48.056;14.408;2023-06-22T15:45:22;22.33;;;8.68;;
38911;SDS011;28444;48.056;14.408;2023-06-22T15:48:10;15.38;;;7.55;;
38911;SDS011;28444;48.056;14.408;2023-06-22T15:51:00;19.55;;;8.98;;
38911;SDS011;28444;48.056;14.408;2023-06-22T15:53:48;21.27;;;8.82;;
38911;SDS011;28444;48.056;14.408;2023-06-22T15:56:38;15.73;;;8.00;;
38911;SDS011;28444;48.056;14.408;2023-06-22T15:59:25;15.85;;;7.72;;
38911;SDS011;28444;48.056;14.408;2023-06-22T16:02:13;19.85;;;8.00;;
38911;SDS011;28444;48.056;14.408;2023-06-22T16:05:01;17.38;;;8.25;;
38911;SDS011;28444;48.056;14.408;2023-06-22T16:07:50;33.97;;;8.82;;
38911;SDS011;28444;48.056;14.408;2023-06-22T16:10:38;13.45;;;7.55;;
38911;SDS011;28444;48.056;14.408;2023-06-22T16:13:31;20.70;;;8.45;;
38911;SDS011;28444;48.056;14.408;2023-06-22T16:16:20;14.80;;;7.68;;
38911;SDS011;28444;48.056;14.408;2023-06-22T16:19:12;21.48;;;8.80;;
38911;SDS011;28444;48.056;14.408;2023-06-22T16:22:03;31.30;;;8.85;;
38911;SDS011;28444;48.056;14.408;2023-06-22T16:24:50;19.73;;;9.05;;
38911;SDS011;28444;48.056;14.408;2023-06-22T16:27:39;19.98;;;8.20;;
38911;SDS011;28444;48.056;14.408;2023-06-22T16:30:26;25.05;;;8.85;;
38911;SDS011;28444;48.056;14.408;2023-06-22T16:33:13;15.55;;;8.80;;